Kenai, AK

12:00 PM AKDT on October 23, 2014 (GMT -0800)
MARITIME | Change Station
CLOSE
Current Station
Personal Weather Station
Location: Nikiski, AK
Elevation: 0 ft
Nearby Weather Stations

Elev 0 ft 60.70 °N, 151.40 °W | Updated 664 days ago

Clear
Clear
35 °F
Feels Like 35 °F
N
4
Wind Variable Wind from North
Gusts 8 mph

Today
High -- | Low -- °F
--% Chance of Precip.
Yesterday
High -- | Low -- °F
Precip. -- in
9:07 AM 6:30 PM
Waning Crescent, 0% visible
Pressure 29.72 in
Visibility 10.0 miles
Clouds Clear
Dew Point 23 °F
Humidity 64%
Rainfall -999.00 in
Snow Depth Not available.
UV 1 out of 12
Pollen Not available.
Air Quality Not available.
Flu Activity Sporadic
METAR PAEN 231953Z 00000KT 10SM CLR 01/M02 A2971 RMK AO2 SLP064 T00111022

More Conditions Fewer Conditions

Pressure 29.72 in
Visibility 10.0 miles
Clouds Clear
Dew Point 23 °F
Humidity 64%
Rainfall -999.00 in
Snow Depth Not available.
UV 1 out of 12
Pollen Not available.
Air Quality Not available.
Flu Activity Sporadic
METAR PAEN 231953Z 00000KT 10SM CLR 01/M02 A2971 RMK AO2 SLP064 T00111022

More Conditions Fewer Conditions

10-Day Weather Forecast

Almanac

Astronomy

Oct. 23, 2014 Rise Set
Actual Time 9:07 AM AKDT 6:30 PM AKDT
Civil Twilight 8:23 AM AKDT 7:15 PM AKDT
Nautical Twilight 7:33 AM AKDT 8:04 PM AKDT
Astronomical Twilight 6:44 AM AKDT 8:53 PM AKDT
Moon 8:55 AM AKDT 6:35 PM AKDT
Length of Visible Light 10h 51m
Length of Day
9h 22m
Tomorrow will be 5m 27s shorter.
Waning Crescent, 0% of the Moon is Illuminated
Today
Waning Crescent
Oct 23
New
Oct 30
First Quarter
Nov 6
Full
Nov 14
Last Quarter

Today's Extremes

State Highs State Lows

Community

WunderPhotos

Upload Photos

1,764,350 photos uploaded!

WunderBlogs® & News

By Dr. Jeff Masters
Director of Meteorology, Weather Underground
By Kari Strenfel
Meteorologist, Weather Underground
By Christopher C. Burt
Weather Historian, Weather Underground
October 23, 2014
October 23, 2014
October 23, 2014

Nearby

Snow Depth

Station Depth Elevation
Cooper Lake 1 in 1200 ft
Summit Creek 3 in 1400 ft
Point Mackenzie 1 in 200 ft
MF Bradley River 0 in 2300 ft
Mcneil Canyon 1 in 1320 ft

Earthquake Activity

City Distance Mag. Time & Date
No recent earthquake activity has been reported nearby.
Minimum magnitude displayed is 2.5.

Coastal Water Temperatures

Place Temperature
No Stations Reporting

Nearby Weather Stations